Portada
METAR-TAF:

METAR-TAF

Aeroports :

Aeroport Internacional de Ginebra

Ginebra, Suïssa

latitud: 46-15N, longitud: 006-08E, altitud: 420 m

Observació

L'informe es va fer fa 31 minuts, a les 18:50 UTC
Vent 15 kt del Nord-Est
Temperatura 5°C
Humitat 75%
Pressió 1018 hPa
Visibilitat 10 km o més
Escasses núvols a una alçada de 2000 ft
Cel ennuvolat a una alçada de 3200 ft

METAR: LSGG 291850Z 04015KT 9999 FEW020 BKN032 05/01 Q1018 NOSIG

Hora: 21:21 (19:21 UTC)

Pronòstic

L'informe es va fer fa 1 hora i 56 minuts, a les 17:25 UTC
Pronòstic vàlid del 29 a les 18 UTC al 30 a les 24 UTC
Vent 15 kt del Nord-Est
Visibilitat 10 km o més
Núvols disperses a una alçada de 3000 ft
Cel ennuvolat a una alçada de 4500 ft
Evolucionant progressivament
l' 29 a les 21 UTC al 29 a les 23 UTC
Vent 25 kt del Nord-Est amb ràfegues de 35 kt

TAF: LSGG 291725Z 2918/3024 04015KT 9999 SCT030 BKN045 TX06/3015Z TN03/3005Z BECMG 2921/2923 05025G35KT

Observacions i pronòstics meteorològics de més de 4000 aeroports (METAR i TAF).

Les estacions disponibles són els punts grocs i vermells al mapa.

Posi el ratolí al punt desitjat per veure el nom de l'estació.

Feu clic per veure les observacions i els pronòstics meteorològics.

Per canviar el mapa: feu clic els botons verds amb una creu de color negre per apropar; al botó verd amb un guió per allunyar la imatge; o en les fletxes verdes per a mapes adjacents.


METAR-TAF: